Time;durP1;ratioP1;P1;durP2;ratioP2;P2;SDS_P1;SDS_P2;PMS_P1;PMS_P2;Temp;Humidity;BMP_temperature;BMP_pressure;BME280_temperature;BME280_humidity;BME280_pressure;Samples;Min_cycle;Max_cycle;Signal;HPM_P1;HPM_P2
2023/03/04 00:02:22;;;;;;;0.73;0.73;;;;;;;-4.62;97.52;97567.38;4786112;30;20055;-82
2023/03/04 00:04:50;;;;;;;0.82;0.82;;;;;;;-4.64;97.39;97564.91;4786253;30;20055;-81
2023/03/04 00:07:17;;;;;;;0.50;0.50;;;;;;;-4.63;97.37;97565.75;4785932;30;20054;-81
2023/03/04 00:09:45;;;;;;;0.60;0.60;;;;;;;-4.65;97.39;97559.84;4786099;30;20063;-81
2023/03/04 00:12:12;;;;;;;0.68;0.68;;;;;;;-4.65;97.46;97565.94;4788171;29;20059;-81
2023/03/04 00:14:39;;;;;;;0.70;0.70;;;;;;;-4.65;97.59;97562.50;4803854;29;20117;-81
2023/03/04 00:17:07;;;;;;;0.80;0.80;;;;;;;-4.67;97.42;97553.94;4802666;29;20058;-82
2023/03/04 00:19:34;;;;;;;0.70;0.70;;;;;;;-4.66;97.56;97550.31;4791444;29;20091;-80
2023/03/04 00:22:02;;;;;;;0.68;0.68;;;;;;;-4.65;97.57;97546.69;4768695;30;20057;-82
2023/03/04 00:24:30;;;;;;;0.82;0.82;;;;;;;-4.61;97.50;97542.66;4784966;30;20056;-82
2023/03/04 00:26:57;;;;;;;0.70;0.70;;;;;;;-4.62;97.29;97551.59;4769356;30;20059;-82
2023/03/04 00:29:25;;;;;;;0.90;0.90;;;;;;;-4.70;97.07;97544.59;4769690;30;20095;-82
2023/03/04 00:31:52;;;;;;;0.90;0.90;;;;;;;-4.77;97.04;97538.44;4769794;30;20063;-81
2023/03/04 00:34:19;;;;;;;0.63;0.63;;;;;;;-4.72;97.23;97541.34;4785309;30;20066;-80
2023/03/04 00:36:46;;;;;;;0.80;0.80;;;;;;;-4.70;97.05;97536.69;4769312;30;20051;-82
2023/03/04 00:39:14;;;;;;;0.70;0.70;;;;;;;-4.66;97.02;97539.78;4785108;30;20523;-81
2023/03/04 00:41:41;;;;;;;0.90;0.90;;;;;;;-4.71;96.95;97537.72;4784643;29;20079;-82
2023/03/04 00:44:08;;;;;;;0.73;0.73;;;;;;;-4.68;96.74;97539.16;4772462;30;20136;-80
2023/03/04 00:46:35;;;;;;;0.80;0.80;;;;;;;-4.71;96.91;97531.63;4766634;30;20083;-81
2023/03/04 00:49:02;;;;;;;0.70;0.70;;;;;;;-4.70;96.99;97533.25;4777050;30;20059;-82
2023/03/04 00:51:29;;;;;;;0.70;0.70;;;;;;;-4.67;97.06;97525.00;4775356;30;20056;-81
2023/03/04 00:53:57;;;;;;;0.60;0.60;;;;;;;-4.70;97.18;97535.91;4760229;30;20135;-82
2023/03/04 00:56:26;;;;;;;0.73;0.73;;;;;;;-4.82;96.94;97538.97;4776778;30;20128;-82
2023/03/04 00:58:54;;;;;;;0.70;0.70;;;;;;;-4.83;97.43;97534.72;4755863;30;20048;-81
2023/03/04 01:01:21;;;;;;;0.70;0.70;;;;;;;-4.82;97.55;97538.16;4766550;30;20078;-80
2023/03/04 01:03:48;;;;;;;0.80;0.80;;;;;;;-4.86;97.72;97536.88;4771999;30;20055;-82
2023/03/04 01:06:15;;;;;;;0.60;0.60;;;;;;;-4.87;97.96;97533.44;4784892;30;20086;-80
2023/03/04 01:08:43;;;;;;;0.80;0.80;;;;;;;-4.88;98.35;97531.00;4772257;30;20923;-82
2023/03/04 01:11:10;;;;;;;0.80;0.80;;;;;;;-4.87;98.72;97530.81;4782728;30;20055;-81
2023/03/04 01:13:38;;;;;;;0.70;0.70;;;;;;;-4.85;98.97;97528.81;4766935;30;20047;-82
2023/03/04 01:16:06;;;;;;;0.77;0.77;;;;;;;-4.84;99.14;97519.09;4787893;30;20059;-82
2023/03/04 01:18:33;;;;;;;0.80;0.80;;;;;;;-4.85;98.99;97520.13;4767883;30;20142;-81
2023/03/04 01:21:01;;;;;;;0.90;0.90;;;;;;;-4.83;99.18;97523.38;4753839;30;20100;-81
2023/03/04 01:23:28;;;;;;;0.88;0.88;;;;;;;-4.88;99.38;97521.28;4777320;29;20054;-81
2023/03/04 01:25:55;;;;;;;0.77;0.77;;;;;;;-4.93;99.70;97513.13;4771317;30;20065;-81
2023/03/04 01:28:24;;;;;;;0.60;0.60;;;;;;;-4.86;99.85;97521.09;4787785;30;20373;-81
2023/03/04 01:30:51;;;;;;;0.70;0.70;;;;;;;-4.85;100.00;97510.41;4788275;30;20075;-80
2023/03/04 01:33:18;;;;;;;0.70;0.70;;;;;;;-4.86;100.00;97511.41;4787505;30;20055;-81
2023/03/04 01:35:45;;;;;;;0.82;0.82;;;;;;;-4.83;100.00;97504.97;4771763;30;20062;-81
2023/03/04 01:38:13;;;;;;;0.65;0.65;;;;;;;-4.80;100.00;97507.22;4767101;30;20853;-80
2023/03/04 01:40:40;;;;;;;0.73;0.73;;;;;;;-4.79;100.00;97509.66;4767342;30;20154;-81
2023/03/04 01:43:14;;;;;;;0.88;0.88;;;;;;;-4.80;100.00;97508.03;4767188;30;20087;-81
2023/03/04 01:45:41;;;;;;;0.70;0.70;;;;;;;-4.76;100.00;97505.03;4767144;30;20442;-81
2023/03/04 01:48:18;;;;;;;0.80;0.80;;;;;;;-4.73;100.00;97499.41;4766985;30;20732;-81
2023/03/04 01:50:45;;;;;;;0.63;0.63;;;;;;;-4.72;100.00;97493.94;4767568;30;20138;-80
2023/03/04 01:53:23;;;;;;;0.90;0.90;;;;;;;-4.66;100.00;97492.38;4766950;30;20534;-80
2023/03/04 01:55:56;;;;;;;0.65;0.65;;;;;;;-4.62;100.00;97486.56;4752453;30;20060;-81
2023/03/04 01:58:31;;;;;;;0.60;0.60;;;;;;;-4.58;100.00;97482.59;4752281;30;20055;-81
2023/03/04 02:00:58;;;;;;;0.80;0.80;;;;;;;-4.55;100.00;97473.50;4766896;30;20515;-80
2023/03/04 02:03:25;;;;;;;0.70;0.70;;;;;;;-4.54;100.00;97475.13;4767084;30;20062;-80
2023/03/04 02:05:53;;;;;;;0.82;0.82;;;;;;;-4.51;100.00;97466.03;4767231;30;20056;-81
2023/03/04 02:08:21;;;;;;;0.50;0.50;;;;;;;-4.47;100.00;97465.47;4752123;30;20062;-80
2023/03/04 02:10:50;;;;;;;0.90;0.90;;;;;;;-4.41;100.00;97463.91;4767156;30;20055;-81
2023/03/04 02:13:37;;;;;;;0.80;0.80;;;;;;;-4.44;100.00;97459.81;4753926;30;20051;-80
2023/03/04 02:16:04;;;;;;;0.60;0.60;;;;;;;-4.39;100.00;97460.09;4773697;30;20062;-79
2023/03/04 02:18:31;;;;;;;0.73;0.73;;;;;;;-4.33;100.00;97461.16;4783619;30;20056;-82
2023/03/04 02:21:21;;;;;;;0.60;0.60;;;;;;;-4.31;100.00;97453.06;4787810;29;20444;-79
2023/03/04 02:23:57;;;;;;;0.80;0.80;;;;;;;-4.33;100.00;97460.34;4772469;30;20138;-80
2023/03/04 02:26:26;;;;;;;0.90;0.90;;;;;;;-4.35;100.00;97447.38;4771913;30;20059;-80
2023/03/04 02:28:56;;;;;;;0.50;0.50;;;;;;;-4.31;100.00;97447.81;4771480;30;20079;-79
2023/03/04 02:31:32;;;;;;;0.95;0.95;;;;;;;-4.25;100.00;97432.06;4771886;30;20051;-80
2023/03/04 02:34:02;;;;;;;0.70;0.70;;;;;;;-4.25;100.00;97426.78;4756813;30;20606;-80
2023/03/04 02:36:29;;;;;;;0.90;0.90;;;;;;;-4.21;100.00;97421.97;4789299;30;20047;-80
2023/03/04 02:39:05;;;;;;;0.80;0.80;;;;;;;-4.18;100.00;97418.94;4759431;30;20130;-80
2023/03/04 02:41:32;;;;;;;0.80;0.80;;;;;;;-4.16;100.00;97414.28;4773940;30;20112;-81
2023/03/04 02:44:00;;;;;;;0.60;0.60;;;;;;;-4.11;100.00;97422.44;4758505;30;20086;-80
2023/03/04 02:46:27;;;;;;;0.70;0.70;;;;;;;-4.14;100.00;97420.19;4787574;30;20537;-79
2023/03/04 02:48:54;;;;;;;0.90;0.90;;;;;;;-4.11;100.00;97416.38;4771329;30;20043;-80
2023/03/04 02:51:21;;;;;;;0.70;0.70;;;;;;;-4.13;100.00;97406.00;4787508;30;20120;-80
2023/03/04 02:53:48;;;;;;;0.63;0.63;;;;;;;-4.14;100.00;97399.13;4787757;30;20055;-81
2023/03/04 02:56:15;;;;;;;0.73;0.73;;;;;;;-4.20;100.00;97407.78;4787234;30;20051;-80
2023/03/04 02:58:42;;;;;;;0.77;0.77;;;;;;;-4.23;100.00;97400.25;4786540;30;20051;-81
2023/03/04 03:01:10;;;;;;;0.90;0.90;;;;;;;-4.25;100.00;97397.00;4785764;30;20542;-80
2023/03/04 03:03:37;;;;;;;0.80;0.80;;;;;;;-4.25;100.00;97408.34;4770861;30;20051;-80
2023/03/04 03:06:04;;;;;;;0.80;0.80;;;;;;;-4.23;100.00;97402.88;4786789;30;20136;-80
2023/03/04 03:08:31;;;;;;;0.65;0.65;;;;;;;-4.26;100.00;97388.28;4771088;30;20059;-80
2023/03/04 03:11:00;;;;;;;0.80;0.80;;;;;;;-4.24;100.00;97398.63;4787077;30;20056;-80
2023/03/04 03:13:29;;;;;;;0.70;0.70;;;;;;;-4.26;100.00;97382.19;4770830;30;20124;-80
2023/03/04 03:15:56;;;;;;;0.80;0.80;;;;;;;-4.29;100.00;97372.03;4786276;29;20051;-80
2023/03/04 03:18:24;;;;;;;0.70;0.70;;;;;;;-4.29;100.00;97383.38;4786644;30;20061;-80
2023/03/04 03:20:51;;;;;;;0.60;0.60;;;;;;;-4.25;100.00;97368.03;4785822;30;20065;-81
2023/03/04 03:23:19;;;;;;;0.70;0.70;;;;;;;-4.26;100.00;97366.38;4785798;30;20059;-80
2023/03/04 03:25:47;;;;;;;0.75;0.75;;;;;;;-4.29;100.00;97372.03;4769428;30;20063;-80
2023/03/04 03:28:13;;;;;;;0.60;0.60;;;;;;;-4.36;100.00;97378.06;4778528;30;20491;-81
2023/03/04 03:30:40;;;;;;;0.88;0.88;;;;;;;-4.42;100.00;97365.66;4785271;30;20151;-80
2023/03/04 03:33:07;;;;;;;0.60;0.60;;;;;;;-4.44;100.00;97365.03;4765831;30;20393;-81
2023/03/04 03:35:36;;;;;;;0.73;0.73;;;;;;;-4.43;100.00;97358.78;4753068;30;20066;-81
2023/03/04 03:38:03;;;;;;;0.80;0.80;;;;;;;-4.42;100.00;97365.66;4768442;30;20056;-80
2023/03/04 03:40:30;;;;;;;0.70;0.70;;;;;;;-4.38;100.00;97347.63;4775367;30;20579;-80
2023/03/04 03:42:57;;;;;;;0.80;0.80;;;;;;;-4.35;100.00;97347.28;4770009;30;20062;-80
2023/03/04 03:45:24;;;;;;;0.73;0.73;;;;;;;-4.31;100.00;97345.88;4786356;30;20056;-80
2023/03/04 03:47:51;;;;;;;0.85;0.85;;;;;;;-4.25;100.00;97344.31;4770064;30;20112;-80
2023/03/04 03:50:18;;;;;;;0.77;0.77;;;;;;;-4.23;100.00;97332.59;4785737;30;20051;-80
2023/03/04 03:52:45;;;;;;;0.70;0.70;;;;;;;-4.14;100.00;97334.06;4786079;30;20074;-79
2023/03/04 03:55:12;;;;;;;0.70;0.70;;;;;;;-4.10;100.00;97323.97;4786502;30;20090;-80
2023/03/04 03:57:39;;;;;;;0.65;0.65;;;;;;;-4.07;100.00;97322.78;4786298;30;20051;-80
2023/03/04 04:00:08;;;;;;;0.85;0.85;;;;;;;-4.05;100.00;97320.72;4770301;30;20050;-79
2023/03/04 04:02:38;;;;;;;0.70;0.70;;;;;;;-4.03;100.00;97311.63;4770835;30;20154;-80
2023/03/04 04:05:06;;;;;;;0.50;0.50;;;;;;;-4.02;100.00;97313.28;4786227;30;20117;-79
2023/03/04 04:07:34;;;;;;;0.70;0.70;;;;;;;-4.00;100.00;97308.63;4785871;30;20525;-80
2023/03/04 04:10:02;;;;;;;0.93;0.93;;;;;;;-3.98;100.00;97301.31;4770083;30;20057;-80
2023/03/04 04:12:29;;;;;;;0.75;0.75;;;;;;;-3.94;100.00;97302.56;4786133;29;20086;-79
2023/03/04 04:14:56;;;;;;;0.80;0.80;;;;;;;-3.97;100.00;97302.16;4785978;30;20059;-80
2023/03/04 04:17:23;;;;;;;0.80;0.80;;;;;;;-3.97;100.00;97295.06;4785991;30;20051;-80
2023/03/04 04:19:50;;;;;;;0.82;0.82;;;;;;;-3.88;100.00;97300.16;4769749;30;20085;-79
2023/03/04 04:22:19;;;;;;;1.00;1.00;;;;;;;-3.90;99.86;97297.72;4785586;30;20512;-80
2023/03/04 04:24:47;;;;;;;0.70;0.70;;;;;;;-3.92;99.41;97291.84;4769964;30;20047;-80
2023/03/04 04:27:14;;;;;;;0.90;0.90;;;;;;;-3.93;99.54;97285.75;4785577;30;20858;-80
2023/03/04 04:29:41;;;;;;;0.80;0.80;;;;;;;-3.88;99.50;97287.00;4785672;30;20562;-80
2023/03/04 04:32:08;;;;;;;0.63;0.63;;;;;;;-3.83;99.45;97285.38;4785513;30;20062;-80
2023/03/04 04:34:35;;;;;;;0.70;0.70;;;;;;;-3.77;99.41;97283.81;4763714;30;20066;-80
2023/03/04 04:37:02;;;;;;;0.70;0.70;;;;;;;-3.75;99.39;97284.41;4783398;30;20059;-81
2023/03/04 04:39:29;;;;;;;0.70;0.70;;;;;;;-3.71;98.89;97275.91;4785048;29;20067;-81
2023/03/04 04:41:56;;;;;;;0.77;0.77;;;;;;;-3.69;99.07;97281.00;4785205;30;20059;-80
2023/03/04 04:44:23;;;;;;;0.82;0.82;;;;;;;-3.62;98.94;97284.50;4769084;30;20058;-81
2023/03/04 04:46:50;;;;;;;0.65;0.65;;;;;;;-3.58;98.75;97275.16;4769471;30;20075;-81
2023/03/04 04:49:17;;;;;;;1.00;1.00;;;;;;;-3.52;98.51;97279.66;4785168;30;20055;-79
2023/03/04 04:51:44;;;;;;;0.80;0.80;;;;;;;-3.45;98.14;97268.31;4769807;30;20051;-79
2023/03/04 04:54:13;;;;;;;0.75;0.75;;;;;;;-3.43;97.67;97276.84;4769474;30;20063;-82
2023/03/04 04:56:40;;;;;;;0.80;0.80;;;;;;;-3.40;97.35;97265.91;4785547;30;20060;-81
2023/03/04 04:59:07;;;;;;;0.80;0.80;;;;;;;-3.37;97.45;97266.31;4784912;30;20077;-80
2023/03/04 05:01:34;;;;;;;0.95;0.95;;;;;;;-3.35;97.24;97264.28;4785194;30;20086;-82
2023/03/04 05:04:01;;;;;;;0.80;0.80;;;;;;;-3.31;96.88;97270.00;4781381;30;20055;-82
2023/03/04 05:06:29;;;;;;;0.90;0.90;;;;;;;-3.27;96.84;97265.94;4774983;30;20063;-80
2023/03/04 05:08:56;;;;;;;0.90;0.90;;;;;;;-3.13;96.78;97272.88;4781328;29;20055;-79
2023/03/04 05:11:23;;;;;;;0.90;0.90;;;;;;;-3.07;96.46;97264.16;4781811;30;20067;-81
2023/03/04 05:13:50;;;;;;;0.95;0.95;;;;;;;-2.99;96.43;97275.53;4780217;30;20135;-80
2023/03/04 05:16:18;;;;;;;0.80;0.80;;;;;;;-3.01;96.13;97275.75;4751474;30;20166;-78
2023/03/04 05:18:45;;;;;;;0.80;0.80;;;;;;;-3.00;95.45;97266.81;4774561;30;20051;-81
2023/03/04 05:21:12;;;;;;;0.80;0.80;;;;;;;-2.95;95.05;97274.13;4777763;30;20086;-84
2023/03/04 05:23:41;;;;;;;0.80;0.80;;;;;;;-2.95;94.73;97271.50;4767383;30;20139;-80
2023/03/04 05:26:10;;;;;;;0.60;0.60;;;;;;;-2.87;94.52;97268.66;4783668;30;20158;-80
2023/03/04 05:28:37;;;;;;;1.00;1.00;;;;;;;-2.79;94.12;97257.91;4778117;30;20055;-82
2023/03/04 05:31:04;;;;;;;1.00;1.00;;;;;;;-2.62;93.69;97264.41;4783014;30;20051;-81
2023/03/04 05:33:31;;;;;;;0.88;0.88;;;;;;;-2.53;92.97;97266.84;4780910;30;20602;-81
2023/03/04 05:35:58;;;;;;;0.98;0.98;;;;;;;-2.55;92.55;97259.13;4766225;30;20121;-79
2023/03/04 05:38:26;;;;;;;1.10;1.10;;;;;;;-2.45;92.11;97261.38;4781063;30;20502;-80
2023/03/04 05:40:58;;;;;;;0.85;0.85;;;;;;;-2.44;91.83;97262.97;4782272;29;20059;-81
2023/03/04 05:43:26;;;;;;;1.00;1.00;;;;;;;-2.46;91.38;97257.09;4778214;30;20507;-81
2023/03/04 05:45:54;;;;;;;0.80;0.80;;;;;;;-2.56;91.30;97256.69;4779428;30;20529;-81
2023/03/04 05:48:21;;;;;;;0.90;0.90;;;;;;;-2.65;91.04;97242.88;4775400;29;20126;-80
2023/03/04 05:50:59;;;;;;;0.80;0.80;;;;;;;-2.65;91.18;97254.25;4778142;30;20056;-82
2023/03/04 05:53:27;;;;;;;0.90;0.90;;;;;;;-2.59;90.78;97241.25;4771829;30;20069;-83
2023/03/04 05:55:55;;;;;;;0.90;0.90;;;;;;;-2.60;90.29;97234.34;4762452;30;20056;-83
2023/03/04 05:58:22;;;;;;;1.00;1.00;;;;;;;-2.54;90.18;97244.91;4770349;30;20622;-84
2023/03/04 06:00:49;;;;;;;0.93;0.93;;;;;;;-2.68;89.74;97243.28;4770389;30;20052;-83
2023/03/04 06:03:18;;;;;;;0.80;0.80;;;;;;;-2.72;90.16;97242.06;4770177;30;20087;-83
2023/03/04 06:05:46;;;;;;;0.93;0.93;;;;;;;-2.75;90.08;97243.28;4773876;29;20059;-81
2023/03/04 06:08:13;;;;;;;1.00;1.00;;;;;;;-2.66;90.44;97241.25;4781611;30;20055;-82
2023/03/04 06:10:41;;;;;;;1.00;1.00;;;;;;;-2.45;90.11;97241.03;4770679;30;20499;-82
2023/03/04 06:13:08;;;;;;;0.98;0.98;;;;;;;-2.39;89.16;97236.75;4774208;30;20610;-82
2023/03/04 06:15:43;;;;;;;0.77;0.77;;;;;;;-2.35;88.49;97227.41;4786676;30;20055;-82
2023/03/04 06:18:10;;;;;;;0.90;0.90;;;;;;;-2.34;88.32;97234.31;4766344;30;20439;-83
2023/03/04 06:20:37;;;;;;;1.00;1.00;;;;;;;-2.38;88.07;97234.94;4787568;30;20047;-84
2023/03/04 06:23:04;;;;;;;0.90;0.90;;;;;;;-2.44;87.99;97228.63;4767081;30;20062;-83
2023/03/04 06:25:31;;;;;;;0.82;0.82;;;;;;;-2.37;87.84;97228.66;4784606;30;20511;-82
2023/03/04 06:27:58;;;;;;;0.90;0.90;;;;;;;-2.21;87.61;97221.06;4787810;30;20090;-82
2023/03/04 06:30:26;;;;;;;1.00;1.00;;;;;;;-2.07;87.07;97221.06;4771492;30;20422;-82
2023/03/04 06:32:53;;;;;;;1.00;1.00;;;;;;;-1.92;86.56;97216.34;4786858;30;20145;-83
2023/03/04 06:35:20;;;;;;;0.90;0.90;;;;;;;-1.72;85.98;97215.44;4773367;30;20066;-83
2023/03/04 06:37:47;;;;;;;1.00;1.00;;;;;;;-1.80;85.27;97201.44;4765581;30;20051;-83
2023/03/04 06:40:15;;;;;;;0.85;0.85;;;;;;;-1.81;85.32;97201.66;4774940;30;20595;-82
2023/03/04 06:42:42;;;;;;;1.00;1.00;;;;;;;-1.85;85.11;97213.66;4764833;30;20512;-82
2023/03/04 06:45:10;;;;;;;1.00;1.00;;;;;;;-1.71;85.63;97207.31;4778667;30;20047;-83
2023/03/04 06:47:37;;;;;;;1.00;1.00;;;;;;;-1.62;85.41;97199.94;4767701;30;20131;-82
2023/03/04 06:50:05;;;;;;;0.93;0.93;;;;;;;-1.63;84.78;97203.59;4783326;30;20047;-83
2023/03/04 06:52:32;;;;;;;1.00;1.00;;;;;;;-1.69;84.08;97199.16;4780224;30;20058;-83
2023/03/04 06:54:59;;;;;;;0.90;0.90;;;;;;;-1.61;84.40;97190.97;4768592;30;20108;-84
2023/03/04 06:57:28;;;;;;;0.90;0.90;;;;;;;-1.58;83.93;97191.38;4780925;30;20066;-83
2023/03/04 06:59:56;;;;;;;1.00;1.00;;;;;;;-1.53;84.32;97188.09;4779774;29;20055;-86
2023/03/04 07:02:23;;;;;;;0.90;0.90;;;;;;;-1.34;84.24;97181.88;4781834;29;20059;-83
2023/03/04 07:04:52;;;;;;;1.10;1.10;;;;;;;-1.30;83.17;97171.66;4778647;29;20081;-86
2023/03/04 07:07:19;;;;;;;0.88;0.88;;;;;;;-1.63;83.15;97159.44;4779262;29;20056;-84
2023/03/04 07:09:46;;;;;;;1.10;1.10;;;;;;;-1.82;84.03;97169.09;4767012;30;20051;-83
2023/03/04 07:12:13;;;;;;;0.88;0.88;;;;;;;-1.74;84.52;97160.13;4783504;29;20055;-88
2023/03/04 07:14:40;;;;;;;0.90;0.90;;;;;;;-1.68;84.87;97155.81;4784651;30;20117;-83
2023/03/04 07:17:07;;;;;;;0.93;0.93;;;;;;;-1.52;84.66;97144.72;4774913;30;20883;-82
2023/03/04 07:19:37;;;;;;;1.10;1.10;;;;;;;-1.03;84.01;97142.38;4767258;30;20121;-83
2023/03/04 07:22:04;;;;;;;1.00;1.00;;;;;;;-0.93;82.92;97132.91;4768527;30;20052;-82
2023/03/04 07:24:30;;;;;;;1.00;1.00;;;;;;;-1.20;82.70;97136.78;4771461;30;20087;-83
2023/03/04 07:26:58;;;;;;;1.00;1.00;;;;;;;-1.26;83.14;97140.31;4768911;29;20090;-84
2023/03/04 07:29:26;;;;;;;1.00;1.00;;;;;;;-1.30;83.81;97134.63;4784668;30;20514;-84
2023/03/04 07:31:54;;;;;;;1.05;1.05;;;;;;;-1.23;83.99;97139.88;4777442;30;20195;-84
2023/03/04 07:34:21;;;;;;;1.00;1.00;;;;;;;-1.02;83.85;97133.38;4761119;30;20062;-85
2023/03/04 07:36:48;;;;;;;0.80;0.80;;;;;;;-0.92;83.19;97125.78;4777235;30;20120;-88
2023/03/04 07:39:16;;;;;;;1.10;1.10;;;;;;;-0.78;83.38;97126.47;4729790;30;20178;-88
2023/03/04 07:41:43;;;;;;;1.10;1.10;;;;;;;-0.54;82.76;97109.72;4777694;30;20066;-87
2023/03/04 07:44:11;;;;;;;1.00;1.00;;;;;;;-0.32;82.71;97119.91;4787232;30;20052;-87
2023/03/04 07:46:40;;;;;;;1.00;1.00;;;;;;;-0.43;81.69;97121.44;4726974;30;20055;-83
2023/03/04 07:49:07;;;;;;;1.00;1.00;;;;;;;-0.65;81.91;97113.09;4755440;30;20063;-88
2023/03/04 07:51:37;;;;;;;0.80;0.80;;;;;;;-0.89;82.37;97117.38;4785170;30;20051;-88
2023/03/04 07:54:05;;;;;;;0.90;0.90;;;;;;;-0.96;82.36;97117.47;4779037;29;20133;-84
2023/03/04 07:56:33;;;;;;;1.10;1.10;;;;;;;-0.78;81.70;97092.84;4767640;29;20055;-85
2023/03/04 07:59:01;;;;;;;1.00;1.00;;;;;;;-0.71;81.17;97098.06;4785232;30;20048;-82
2023/03/04 08:01:34;;;;;;;0.93;0.93;;;;;;;-0.77;80.98;97098.94;4766654;30;20608;-82
2023/03/04 08:04:02;;;;;;;1.10;1.10;;;;;;;-0.76;81.24;97093.44;4776117;30;20065;-82
2023/03/04 08:06:29;;;;;;;1.00;1.00;;;;;;;-0.60;80.59;97094.69;4782058;30;20082;-84
2023/03/04 08:09:04;;;;;;;1.00;1.00;;;;;;;-0.55;80.29;97092.19;4769169;30;20540;-82
2023/03/04 08:11:33;;;;;;;1.10;1.10;;;;;;;-0.42;79.96;97091.25;4436933;29;10000251;-85
2023/03/04 08:13:59;;;;;;;1.00;1.00;;;;;;;-0.42;79.56;97085.16;4769168;30;20478;-85
2023/03/04 08:16:26;;;;;;;0.90;0.90;;;;;;;-0.60;79.55;97085.94;4779282;30;20117;-84
2023/03/04 08:18:56;;;;;;;0.98;0.98;;;;;;;-0.83;79.80;97086.59;4773232;30;20455;-85
2023/03/04 08:21:25;;;;;;;1.00;1.00;;;;;;;-0.72;80.37;97076.06;4783954;30;20063;-83
2023/03/04 08:23:52;;;;;;;1.05;1.05;;;;;;;-0.52;80.38;97089.09;4770919;30;20070;-84
2023/03/04 08:26:23;;;;;;;0.95;0.95;;;;;;;-0.48;79.38;97077.03;4779567;30;20055;-83
2023/03/04 08:28:52;;;;;;;0.90;0.90;;;;;;;-0.54;78.96;97072.59;4753918;30;20063;-83
2023/03/04 08:31:19;;;;;;;0.98;0.98;;;;;;;-0.51;79.40;97069.50;4784073;30;20427;-83
2023/03/04 08:33:47;;;;;;;0.90;0.90;;;;;;;-0.35;79.38;97075.28;4784711;30;20079;-81
2023/03/04 08:36:14;;;;;;;1.00;1.00;;;;;;;-0.25;79.34;97076.38;4784146;30;20087;-82
2023/03/04 08:38:42;;;;;;;0.90;0.90;;;;;;;-0.36;78.57;97061.19;4763315;30;20087;-85
2023/03/04 08:41:09;;;;;;;0.90;0.90;;;;;;;-0.21;78.35;97068.78;4777084;29;20548;-85
2023/03/04 08:43:36;;;;;;;1.00;1.00;;;;;;;-0.34;77.77;97053.84;4779004;30;20058;-91
2023/03/04 08:46:05;;;;;;;1.00;1.00;;;;;;;-0.22;77.82;97051.25;4749097;30;20066;-84
2023/03/04 08:48:32;;;;;;;1.00;1.00;;;;;;;0.34;77.52;97047.41;4787768;30;20435;-85
2023/03/04 08:50:59;;;;;;;1.38;1.27;;;;;;;1.47;75.16;97042.06;4766854;30;20109;-86
2023/03/04 08:53:27;;;;;;;1.50;1.40;;;;;;;2.43;70.34;97034.31;4784529;29;20511;-84
2023/03/04 08:55:54;;;;;;;1.40;1.30;;;;;;;3.38;65.66;97031.72;4754021;30;20063;-84
2023/03/04 08:58:21;;;;;;;1.00;1.00;;;;;;;2.94;66.19;97036.97;4780582;30;20055;-85
2023/03/04 09:00:50;;;;;;;1.00;1.00;;;;;;;2.29;65.97;97027.66;4785587;30;20158;-87
2023/03/04 09:03:19;;;;;;;1.08;1.08;;;;;;;1.84;67.04;97028.41;4785486;30;20075;-86
2023/03/04 09:05:47;;;;;;;1.08;1.08;;;;;;;1.35;67.08;97027.97;4730874;30;20085;-89
2023/03/04 09:08:17;;;;;;;0.90;0.90;;;;;;;0.89;67.73;97016.31;4757661;30;20138;-86
2023/03/04 09:10:45;;;;;;;0.93;0.93;;;;;;;0.48;69.05;97004.75;4757571;30;20357;-88
2023/03/04 09:13:15;;;;;;;1.00;1.00;;;;;;;0.51;68.92;97009.63;4768314;30;20051;-85
2023/03/04 09:15:46;;;;;;;0.93;0.93;;;;;;;0.57;68.86;97016.66;4785406;30;20047;-85
2023/03/04 09:18:14;;;;;;;1.00;1.00;;;;;;;0.38;69.03;96995.53;4785357;30;20078;-86
2023/03/04 09:20:41;;;;;;;1.00;1.00;;;;;;;0.41;70.02;96992.41;4785065;30;20499;-89
2023/03/04 09:23:08;;;;;;;0.98;0.98;;;;;;;0.63;70.07;96997.97;4784893;29;20150;-86
2023/03/04 09:25:37;;;;;;;1.00;1.00;;;;;;;0.74;70.02;96993.72;4774324;30;20055;-90
2023/03/04 09:28:05;;;;;;;1.20;1.20;;;;;;;0.77;69.31;96977.31;4759618;30;20086;-89
2023/03/04 09:30:33;;;;;;;1.30;1.20;;;;;;;1.32;68.22;96972.59;4773473;30;20087;-88
2023/03/04 09:33:01;;;;;;;1.10;1.10;;;;;;;1.78;65.95;96962.88;4765773;30;20184;-86
2023/03/04 09:35:31;;;;;;;1.00;1.00;;;;;;;1.47;65.37;96957.00;4788819;30;20059;-87
2023/03/04 09:37:58;;;;;;;1.00;1.00;;;;;;;1.29;66.15;96961.44;4788576;30;20066;-88
2023/03/04 09:40:44;;;;;;;1.00;1.00;;;;;;;1.17;65.91;96941.25;4788256;30;20494;-86
2023/03/04 09:43:18;;;;;;;1.00;1.00;;;;;;;0.89;66.47;96941.94;4758755;30;20150;-86
2023/03/04 09:45:52;;;;;;;1.00;1.00;;;;;;;0.74;67.59;96934.50;4772251;30;20064;-86
2023/03/04 09:48:24;;;;;;;0.90;0.90;;;;;;;0.66;67.80;96938.31;4787875;30;20461;-88
2023/03/04 09:51:07;;;;;;;1.00;1.00;;;;;;;0.51;68.54;96930.00;4773794;30;20117;-87
2023/03/04 09:53:37;;;;;;;0.90;0.90;;;;;;;0.49;69.42;96938.19;4769534;30;20064;-87
2023/03/04 09:56:05;;;;;;;1.00;1.00;;;;;;;0.42;69.39;96929.50;4772645;30;20055;-89
2023/03/04 09:58:51;;;;;;;0.90;0.90;;;;;;;0.20;70.00;96924.78;4785565;30;20113;-87
2023/03/04 10:01:25;;;;;;;1.00;1.00;;;;;;;0.18;70.52;96926.06;4764728;30;20062;-89
2023/03/04 10:04:11;;;;;;;0.90;0.90;;;;;;;0.12;70.89;96924.28;4749097;30;20116;-87
2023/03/04 10:06:39;;;;;;;0.90;0.90;;;;;;;0.15;71.57;96899.97;4780936;30;20055;-89
2023/03/04 10:09:25;;;;;;;1.05;1.05;;;;;;;0.33;71.72;96909.66;4764109;30;20150;-88
2023/03/04 10:12:01;;;;;;;0.93;0.93;;;;;;;0.50;71.60;96893.84;4758657;30;20066;-90
2023/03/04 10:14:41;;;;;;;0.95;0.95;;;;;;;0.73;71.14;96901.78;4774580;30;20060;-87
2023/03/04 10:17:41;;;;;;;0.90;0.90;;;;;;;0.83;71.08;96883.41;4758329;30;20090;-89
2023/03/04 10:20:17;;;;;;;0.95;0.95;;;;;;;0.92;71.25;96880.44;4765939;30;20126;-88
2023/03/04 10:22:47;;;;;;;1.00;1.00;;;;;;;0.70;71.70;96883.69;4754558;30;20059;-91
2023/03/04 10:25:21;;;;;;;1.00;1.00;;;;;;;0.59;72.65;96884.53;4768389;30;20590;-86
2023/03/04 10:27:50;;;;;;;0.82;0.82;;;;;;;0.53;73.38;96874.81;4787590;30;20055;-85
2023/03/04 10:30:39;;;;;;;1.00;1.00;;;;;;;0.50;74.21;96869.97;4775416;30;20051;-87
2023/03/04 10:33:15;;;;;;;1.00;1.00;;;;;;;0.68;74.88;96861.88;4790035;30;20197;-88
2023/03/04 10:35:45;;;;;;;0.98;0.98;;;;;;;0.80;74.80;96849.38;4788379;29;20087;-88
2023/03/04 10:38:15;;;;;;;0.90;0.90;;;;;;;0.91;74.99;96857.53;4760617;30;20089;-87
2023/03/04 10:40:42;;;;;;;1.00;1.00;;;;;;;0.97;74.95;96846.81;4760609;30;20051;-87
2023/03/04 10:43:19;;;;;;;0.90;0.90;;;;;;;0.96;74.89;96841.72;4791735;30;20130;-87
2023/03/04 10:45:47;;;;;;;;;;;;;;;0.83;75.60;96853.41;4779925;30;20055;-87
2023/03/04 10:48:27;;;;;;;1.10;1.10;;;;;;;0.88;75.56;96840.22;4782718;30;19970;-86
2023/03/04 10:51:09;;;;;;;1.08;1.08;;;;;;;0.84;76.09;96841.75;4783905;30;20059;-87
2023/03/04 10:53:39;;;;;;;0.93;0.93;;;;;;;0.85;76.08;96836.19;4764285;30;20059;-87
2023/03/04 10:56:32;;;;;;;1.00;1.00;;;;;;;0.70;76.50;96835.88;4740833;30;20431;-86
2023/03/04 10:59:29;;;;;;;0.90;0.90;;;;;;;0.68;76.99;96830.00;4771296;30;20469;-88
2023/03/04 11:02:00;;;;;;;0.98;0.98;;;;;;;0.52;76.93;96822.78;4768818;30;20052;-89
2023/03/04 11:04:32;;;;;;;1.00;1.00;;;;;;;0.39;76.97;96821.19;4740059;30;20492;-87
2023/03/04 11:06:59;;;;;;;1.00;1.00;;;;;;;0.43;77.24;96817.00;4771031;30;20052;-87
2023/03/04 11:09:29;;;;;;;1.00;1.00;;;;;;;0.43;77.25;96809.88;4769473;30;20557;-87
2023/03/04 11:12:00;;;;;;;0.98;0.98;;;;;;;0.19;77.82;96800.31;4772534;30;20057;-89
2023/03/04 11:14:34;;;;;;;1.00;1.00;;;;;;;0.12;78.66;96800.44;4787769;30;20089;-87
2023/03/04 11:17:15;;;;;;;0.90;0.90;;;;;;;-0.07;79.29;96799.75;4774257;30;20514;-86
2023/03/04 11:19:44;;;;;;;0.90;0.90;;;;;;;-0.24;80.53;96801.47;4784474;30;20047;-87
2023/03/04 11:22:16;;;;;;;1.00;1.00;;;;;;;-0.17;81.08;96793.41;4768307;30;20047;-87
2023/03/04 11:24:44;;;;;;;1.00;1.00;;;;;;;-0.04;81.37;96787.88;4770109;30;20059;-90
2023/03/04 11:27:11;;;;;;;1.00;1.00;;;;;;;-0.20;81.30;96783.25;4755114;30;20075;-91
2023/03/04 11:29:44;;;;;;;1.00;1.00;;;;;;;-0.35;82.24;96773.91;4764190;30;20593;-87
2023/03/04 11:32:21;;;;;;;1.00;1.00;;;;;;;-0.28;82.58;96771.13;4780557;30;20055;-89
2023/03/04 11:34:52;;;;;;;0.90;0.90;;;;;;;-0.38;82.73;96758.47;4773867;30;20060;-89
2023/03/04 11:37:48;;;;;;;1.00;1.00;;;;;;;-0.54;83.04;96764.44;4787369;30;20059;-87
2023/03/04 11:40:23;;;;;;;1.00;1.00;;;;;;;-0.57;83.73;96757.75;4775852;30;20067;-86
2023/03/04 11:42:50;;;;;;;0.93;0.93;;;;;;;-0.61;83.80;96748.63;4784302;29;20059;-87
2023/03/04 11:45:52;;;;;;;0.90;0.90;;;;;;;-0.71;84.58;96764.28;4783124;30;20061;-86